Overview Statistics Trail Chart Weather Telemetry Raw packets
 

This is the latest recevied weather packets stored in our database for station/object DN9EM-3. If no packets are shown the sender has not sent any weather packets the latest 10 day(s).

<< 25 26 27 28 29 30 31 >>
Time Temp. Humidity Pressure Rain* Wind** Luminosity Snow
1788174062 24.44° C 60% 1009.4 hPa 0 mm - - -
1788173442 23.89° C 60% 1009.5 hPa 0 mm - - -
1788172839 23.33° C 62% 1009.6 hPa 0 mm - - -
1788172236 23.33° C 63% 1009.7 hPa 0 mm - - -
1788171634 25° C 61% 1009.6 hPa 0 mm - - -
1788171031 24.44° C 61% 1009.7 hPa 0 mm - - -
1788170428 23.89° C 63% 1009.7 hPa 0 mm - - -
1788169826 24.44° C 61% 1009.8 hPa 0 mm - - -
1788169218 23.33° C 63% 1009.8 hPa 0 mm - - -
1788168615 23.89° C 64% 1009.9 hPa 0 mm - - -
1788168073 23.89° C 64% 1009.8 hPa 0 mm - - -
1788167465 23.89° C 64% 1009.9 hPa 0 mm - - -
1788166862 25.56° C 62% 1009.8 hPa 0 mm - - -
1788166254 25° C 62% 1009.9 hPa 0 mm - - -
1788165651 24.44° C 63% 1009.8 hPa 0 mm - - -
1788165049 22.78° C 66% 1009.8 hPa 0 mm - - -
1788164441 23.33° C 66% 1009.7 hPa 0 mm - - -
1788163838 22.78° C 66% 1009.7 hPa 0 mm - - -
1788163230 23.33° C 65% 1009.6 hPa 0 mm - - -
1788162627 22.78° C 68% 1009.6 hPa 0 mm - - -
1788162025 22.22° C 69% 1009.6 hPa 0 mm - - -
1788161416 21.67° C 70% 1009.6 hPa 0 mm - - -
1788160874 21.11° C 71% 1009.7 hPa 0 mm - - -
1788160266 20.56° C 75% 1009.7 hPa 0 mm - - -
1788159663 18.89° C 79% 1009.8 hPa 0 mm - - -

* Rain latest hour (hover to see other rain measurements)
** Current wind speed in m/s (hover to see current wind gust speed)